sensor_id;sensor_type;location;lat;lon;timestamp;P1;durP1;ratioP1;P2;durP2;ratioP2
29954;SDS011;68448;51.188;6.868;2023-05-07T00:00:48;6.03;;;5.53;;
29954;SDS011;68448;51.188;6.868;2023-05-07T00:03:16;7.60;;;5.27;;
29954;SDS011;68448;51.188;6.868;2023-05-07T00:05:43;7.17;;;6.33;;
29954;SDS011;68448;51.188;6.868;2023-05-07T00:08:11;9.00;;;5.47;;
29954;SDS011;68448;51.188;6.868;2023-05-07T00:10:39;8.70;;;5.70;;
29954;SDS011;68448;51.188;6.868;2023-05-07T00:13:06;7.63;;;5.63;;
29954;SDS011;68448;51.188;6.868;2023-05-07T00:15:33;8.00;;;5.40;;
29954;SDS011;68448;51.188;6.868;2023-05-07T00:18:00;6.47;;;5.60;;
29954;SDS011;68448;51.188;6.868;2023-05-07T00:20:27;7.20;;;6.20;;
29954;SDS011;68448;51.188;6.868;2023-05-07T00:22:54;6.57;;;5.27;;
29954;SDS011;68448;51.188;6.868;2023-05-07T00:25:22;6.60;;;5.87;;
29954;SDS011;68448;51.188;6.868;2023-05-07T00:27:49;5.83;;;5.33;;
29954;SDS011;68448;51.188;6.868;2023-05-07T00:30:17;8.57;;;5.30;;
29954;SDS011;68448;51.188;6.868;2023-05-07T00:32:44;13.10;;;5.63;;
29954;SDS011;68448;51.188;6.868;2023-05-07T00:35:11;9.37;;;6.37;;
29954;SDS011;68448;51.188;6.868;2023-05-07T00:37:38;10.13;;;5.73;;
29954;SDS011;68448;51.188;6.868;2023-05-07T00:40:06;8.70;;;6.47;;
29954;SDS011;68448;51.188;6.868;2023-05-07T00:42:35;13.20;;;6.90;;
29954;SDS011;68448;51.188;6.868;2023-05-07T00:45:02;8.37;;;5.87;;
29954;SDS011;68448;51.188;6.868;2023-05-07T00:47:30;7.30;;;6.03;;
29954;SDS011;68448;51.188;6.868;2023-05-07T00:49:57;20.87;;;14.10;;
29954;SDS011;68448;51.188;6.868;2023-05-07T00:52:24;17.40;;;11.53;;
29954;SDS011;68448;51.188;6.868;2023-05-07T00:54:52;21.27;;;8.93;;
29954;SDS011;68448;51.188;6.868;2023-05-07T00:57:19;12.67;;;7.83;;
29954;SDS011;68448;51.188;6.868;2023-05-07T00:59:48;13.33;;;6.73;;
29954;SDS011;68448;51.188;6.868;2023-05-07T01:02:17;8.20;;;6.50;;
29954;SDS011;68448;51.188;6.868;2023-05-07T01:04:44;9.13;;;6.67;;
29954;SDS011;68448;51.188;6.868;2023-05-07T01:07:12;6.77;;;5.43;;
29954;SDS011;68448;51.188;6.868;2023-05-07T01:09:39;8.83;;;5.83;;
29954;SDS011;68448;51.188;6.868;2023-05-07T01:12:07;5.83;;;5.23;;
29954;SDS011;68448;51.188;6.868;2023-05-07T01:14:34;8.03;;;5.70;;
29954;SDS011;68448;51.188;6.868;2023-05-07T01:17:03;6.80;;;5.47;;
29954;SDS011;68448;51.188;6.868;2023-05-07T01:19:30;6.20;;;5.60;;
29954;SDS011;68448;51.188;6.868;2023-05-07T01:22:01;6.93;;;5.33;;
29954;SDS011;68448;51.188;6.868;2023-05-07T01:24:31;5.23;;;4.73;;
29954;SDS011;68448;51.188;6.868;2023-05-07T01:26:59;5.63;;;4.67;;
29954;SDS011;68448;51.188;6.868;2023-05-07T01:29:32;7.63;;;5.27;;
29954;SDS011;68448;51.188;6.868;2023-05-07T01:32:00;5.87;;;5.27;;
29954;SDS011;68448;51.188;6.868;2023-05-07T01:34:28;7.93;;;5.57;;
29954;SDS011;68448;51.188;6.868;2023-05-07T01:36:56;6.50;;;5.90;;
29954;SDS011;68448;51.188;6.868;2023-05-07T01:39:24;9.03;;;5.90;;
29954;SDS011;68448;51.188;6.868;2023-05-07T01:41:52;9.03;;;6.50;;
29954;SDS011;68448;51.188;6.868;2023-05-07T01:44:20;8.37;;;6.70;;
29954;SDS011;68448;51.188;6.868;2023-05-07T01:46:47;8.90;;;6.13;;
29954;SDS011;68448;51.188;6.868;2023-05-07T01:49:15;7.90;;;6.40;;
29954;SDS011;68448;51.188;6.868;2023-05-07T01:51:43;8.63;;;6.33;;
29954;SDS011;68448;51.188;6.868;2023-05-07T01:54:10;10.60;;;6.20;;
29954;SDS011;68448;51.188;6.868;2023-05-07T01:56:37;9.63;;;6.30;;
29954;SDS011;68448;51.188;6.868;2023-05-07T01:59:05;8.20;;;6.30;;
29954;SDS011;68448;51.188;6.868;2023-05-07T02:01:33;12.07;;;6.90;;
29954;SDS011;68448;51.188;6.868;2023-05-07T02:04:11;11.70;;;5.63;;
29954;SDS011;68448;51.188;6.868;2023-05-07T02:06:38;7.13;;;5.80;;
29954;SDS011;68448;51.188;6.868;2023-05-07T02:09:07;9.60;;;6.27;;
29954;SDS011;68448;51.188;6.868;2023-05-07T02:11:34;12.83;;;6.50;;
29954;SDS011;68448;51.188;6.868;2023-05-07T02:14:01;6.60;;;5.90;;
29954;SDS011;68448;51.188;6.868;2023-05-07T02:16:30;6.10;;;5.50;;
29954;SDS011;68448;51.188;6.868;2023-05-07T02:18:57;6.67;;;5.43;;
29954;SDS011;68448;51.188;6.868;2023-05-07T02:21:24;9.60;;;6.00;;
29954;SDS011;68448;51.188;6.868;2023-05-07T02:23:54;7.37;;;5.90;;
29954;SDS011;68448;51.188;6.868;2023-05-07T02:26:21;9.53;;;6.07;;
29954;SDS011;68448;51.188;6.868;2023-05-07T02:28:48;9.53;;;6.13;;
29954;SDS011;68448;51.188;6.868;2023-05-07T02:31:15;6.67;;;5.90;;
29954;SDS011;68448;51.188;6.868;2023-05-07T02:33:44;10.03;;;6.00;;
29954;SDS011;68448;51.188;6.868;2023-05-07T02:36:12;9.37;;;5.90;;
29954;SDS011;68448;51.188;6.868;2023-05-07T02:38:51;8.57;;;6.47;;
29954;SDS011;68448;51.188;6.868;2023-05-07T02:41:18;6.97;;;5.17;;
29954;SDS011;68448;51.188;6.868;2023-05-07T02:43:45;7.90;;;6.37;;
29954;SDS011;68448;51.188;6.868;2023-05-07T02:46:13;14.40;;;6.10;;
29954;SDS011;68448;51.188;6.868;2023-05-07T02:48:46;8.03;;;5.40;;
29954;SDS011;68448;51.188;6.868;2023-05-07T02:51:13;8.73;;;5.47;;
29954;SDS011;68448;51.188;6.868;2023-05-07T02:53:41;7.20;;;5.43;;
29954;SDS011;68448;51.188;6.868;2023-05-07T02:56:08;5.30;;;4.70;;
29954;SDS011;68448;51.188;6.868;2023-05-07T02:58:35;9.67;;;5.90;;
29954;SDS011;68448;51.188;6.868;2023-05-07T03:01:03;6.80;;;5.03;;
29954;SDS011;68448;51.188;6.868;2023-05-07T03:03:36;9.10;;;5.37;;
29954;SDS011;68448;51.188;6.868;2023-05-07T03:06:04;6.80;;;5.20;;
29954;SDS011;68448;51.188;6.868;2023-05-07T03:08:32;8.03;;;5.33;;
29954;SDS011;68448;51.188;6.868;2023-05-07T03:10:59;6.60;;;5.57;;
29954;SDS011;68448;51.188;6.868;2023-05-07T03:13:26;5.97;;;5.47;;
29954;SDS011;68448;51.188;6.868;2023-05-07T03:15:54;8.10;;;4.97;;
29954;SDS011;68448;51.188;6.868;2023-05-07T03:18:21;8.23;;;4.53;;
29954;SDS011;68448;51.188;6.868;2023-05-07T03:20:48;6.67;;;5.00;;
29954;SDS011;68448;51.188;6.868;2023-05-07T03:23:18;5.97;;;4.77;;
29954;SDS011;68448;51.188;6.868;2023-05-07T03:25:47;7.37;;;4.70;;
29954;SDS011;68448;51.188;6.868;2023-05-07T03:28:14;6.40;;;4.87;;
29954;SDS011;68448;51.188;6.868;2023-05-07T03:30:50;8.10;;;5.43;;
29954;SDS011;68448;51.188;6.868;2023-05-07T03:33:17;5.70;;;5.20;;
29954;SDS011;68448;51.188;6.868;2023-05-07T03:35:45;5.83;;;5.13;;
29954;SDS011;68448;51.188;6.868;2023-05-07T03:38:18;11.67;;;5.13;;
29954;SDS011;68448;51.188;6.868;2023-05-07T03:40:45;4.70;;;4.20;;
29954;SDS011;68448;51.188;6.868;2023-05-07T03:43:12;6.73;;;5.13;;
29954;SDS011;68448;51.188;6.868;2023-05-07T03:45:44;5.10;;;3.90;;
29954;SDS011;68448;51.188;6.868;2023-05-07T03:48:16;5.90;;;4.30;;
29954;SDS011;68448;51.188;6.868;2023-05-07T03:50:44;6.07;;;4.57;;
29954;SDS011;68448;51.188;6.868;2023-05-07T03:53:11;5.57;;;4.30;;
29954;SDS011;68448;51.188;6.868;2023-05-07T03:55:40;4.87;;;4.37;;
29954;SDS011;68448;51.188;6.868;2023-05-07T03:58:07;5.10;;;3.83;;
29954;SDS011;68448;51.188;6.868;2023-05-07T04:00:34;4.87;;;4.13;;
29954;SDS011;68448;51.188;6.868;2023-05-07T04:03:01;8.70;;;4.77;;
29954;SDS011;68448;51.188;6.868;2023-05-07T04:05:30;4.27;;;3.87;;
29954;SDS011;68448;51.188;6.868;2023-05-07T04:08:00;7.17;;;4.20;;
29954;SDS011;68448;51.188;6.868;2023-05-07T04:10:35;6.20;;;4.00;;
29954;SDS011;68448;51.188;6.868;2023-05-07T04:13:08;7.60;;;4.57;;
29954;SDS011;68448;51.188;6.868;2023-05-07T04:15:36;5.10;;;4.27;;
29954;SDS011;68448;51.188;6.868;2023-05-07T04:18:06;5.70;;;3.83;;
29954;SDS011;68448;51.188;6.868;2023-05-07T04:20:34;4.80;;;4.27;;
29954;SDS011;68448;51.188;6.868;2023-05-07T04:23:02;5.70;;;4.40;;
29954;SDS011;68448;51.188;6.868;2023-05-07T04:25:31;4.77;;;4.03;;
29954;SDS011;68448;51.188;6.868;2023-05-07T04:28:07;6.53;;;4.23;;
29954;SDS011;68448;51.188;6.868;2023-05-07T04:30:35;5.90;;;4.10;;
29954;SDS011;68448;51.188;6.868;2023-05-07T04:33:04;4.50;;;3.70;;
29954;SDS011;68448;51.188;6.868;2023-05-07T04:35:31;8.77;;;4.13;;
29954;SDS011;68448;51.188;6.868;2023-05-07T04:37:59;5.00;;;3.73;;
29954;SDS011;68448;51.188;6.868;2023-05-07T04:40:26;5.53;;;4.17;;
29954;SDS011;68448;51.188;6.868;2023-05-07T04:42:53;6.80;;;4.47;;
29954;SDS011;68448;51.188;6.868;2023-05-07T04:45:22;3.60;;;3.30;;
29954;SDS011;68448;51.188;6.868;2023-05-07T04:47:52;3.50;;;3.13;;
29954;SDS011;68448;51.188;6.868;2023-05-07T04:50:19;6.03;;;4.07;;
29954;SDS011;68448;51.188;6.868;2023-05-07T04:52:47;6.53;;;3.30;;
29954;SDS011;68448;51.188;6.868;2023-05-07T04:55:14;3.60;;;3.30;;
29954;SDS011;68448;51.188;6.868;2023-05-07T04:57:41;8.00;;;3.90;;
29954;SDS011;68448;51.188;6.868;2023-05-07T05:00:11;4.10;;;3.13;;
29954;SDS011;68448;51.188;6.868;2023-05-07T05:02:40;4.10;;;3.30;;
29954;SDS011;68448;51.188;6.868;2023-05-07T05:05:07;4.20;;;2.93;;
29954;SDS011;68448;51.188;6.868;2023-05-07T05:07:35;3.13;;;2.83;;
29954;SDS011;68448;51.188;6.868;2023-05-07T05:10:02;3.47;;;3.17;;
29954;SDS011;68448;51.188;6.868;2023-05-07T05:12:32;3.10;;;2.80;;
29954;SDS011;68448;51.188;6.868;2023-05-07T05:15:00;4.30;;;3.90;;
29954;SDS011;68448;51.188;6.868;2023-05-07T05:17:27;4.73;;;3.03;;
29954;SDS011;68448;51.188;6.868;2023-05-07T05:19:56;5.97;;;3.33;;
29954;SDS011;68448;51.188;6.868;2023-05-07T05:22:24;6.10;;;3.87;;
29954;SDS011;68448;51.188;6.868;2023-05-07T05:24:51;3.73;;;3.20;;
29954;SDS011;68448;51.188;6.868;2023-05-07T05:27:18;3.87;;;3.20;;
29954;SDS011;68448;51.188;6.868;2023-05-07T05:29:45;5.00;;;3.30;;
29954;SDS011;68448;51.188;6.868;2023-05-07T05:32:12;4.57;;;3.57;;
29954;SDS011;68448;51.188;6.868;2023-05-07T05:34:39;3.93;;;3.20;;
29954;SDS011;68448;51.188;6.868;2023-05-07T05:37:08;5.20;;;3.50;;
29954;SDS011;68448;51.188;6.868;2023-05-07T05:39:36;4.10;;;3.30;;
29954;SDS011;68448;51.188;6.868;2023-05-07T05:42:04;3.87;;;3.47;;
29954;SDS011;68448;51.188;6.868;2023-05-07T05:44:34;3.90;;;3.20;;
29954;SDS011;68448;51.188;6.868;2023-05-07T05:47:01;4.13;;;3.37;;
29954;SDS011;68448;51.188;6.868;2023-05-07T05:49:29;4.60;;;3.50;;
29954;SDS011;68448;51.188;6.868;2023-05-07T05:51:56;4.23;;;3.40;;
29954;SDS011;68448;51.188;6.868;2023-05-07T05:54:26;3.83;;;3.43;;
29954;SDS011;68448;51.188;6.868;2023-05-07T05:56:53;5.70;;;3.27;;
29954;SDS011;68448;51.188;6.868;2023-05-07T05:59:21;3.20;;;2.90;;
29954;SDS011;68448;51.188;6.868;2023-05-07T06:01:48;4.67;;;3.70;;
29954;SDS011;68448;51.188;6.868;2023-05-07T06:04:15;3.80;;;2.97;;
29954;SDS011;68448;51.188;6.868;2023-05-07T06:06:42;3.37;;;3.03;;
29954;SDS011;68448;51.188;6.868;2023-05-07T06:09:10;3.40;;;2.80;;
29954;SDS011;68448;51.188;6.868;2023-05-07T06:11:42;6.83;;;3.20;;
29954;SDS011;68448;51.188;6.868;2023-05-07T06:14:11;4.93;;;3.20;;
29954;SDS011;68448;51.188;6.868;2023-05-07T06:16:38;8.40;;;3.70;;
29954;SDS011;68448;51.188;6.868;2023-05-07T06:19:06;3.87;;;2.80;;
29954;SDS011;68448;51.188;6.868;2023-05-07T06:21:34;3.53;;;3.20;;
29954;SDS011;68448;51.188;6.868;2023-05-07T06:24:01;3.73;;;2.67;;
29954;SDS011;68448;51.188;6.868;2023-05-07T06:26:28;4.00;;;2.80;;
29954;SDS011;68448;51.188;6.868;2023-05-07T06:28:57;3.30;;;3.00;;
29954;SDS011;68448;51.188;6.868;2023-05-07T06:31:28;5.10;;;3.23;;
29954;SDS011;68448;51.188;6.868;2023-05-07T06:34:00;3.90;;;3.23;;
29954;SDS011;68448;51.188;6.868;2023-05-07T06:36:33;3.80;;;2.70;;
29954;SDS011;68448;51.188;6.868;2023-05-07T06:39:04;2.70;;;2.50;;
29954;SDS011;68448;51.188;6.868;2023-05-07T06:41:32;2.83;;;2.60;;
29954;SDS011;68448;51.188;6.868;2023-05-07T06:44:06;6.07;;;3.73;;
29954;SDS011;68448;51.188;6.868;2023-05-07T06:46:43;3.17;;;2.57;;
29954;SDS011;68448;51.188;6.868;2023-05-07T06:49:10;5.30;;;3.03;;
29954;SDS011;68448;51.188;6.868;2023-05-07T06:51:37;5.70;;;2.60;;
29954;SDS011;68448;51.188;6.868;2023-05-07T06:54:05;4.20;;;2.90;;
29954;SDS011;68448;51.188;6.868;2023-05-07T06:56:35;5.60;;;2.87;;
29954;SDS011;68448;51.188;6.868;2023-05-07T06:59:03;6.60;;;2.70;;
29954;SDS011;68448;51.188;6.868;2023-05-07T07:01:36;4.47;;;2.40;;
29954;SDS011;68448;51.188;6.868;2023-05-07T07:04:04;3.60;;;3.00;;
29954;SDS011;68448;51.188;6.868;2023-05-07T07:06:32;4.03;;;2.63;;
29954;SDS011;68448;51.188;6.868;2023-05-07T07:09:01;3.10;;;2.63;;
29954;SDS011;68448;51.188;6.868;2023-05-07T07:11:29;2.80;;;2.60;;
29954;SDS011;68448;51.188;6.868;2023-05-07T07:13:57;4.87;;;2.57;;
29954;SDS011;68448;51.188;6.868;2023-05-07T07:16:24;5.53;;;2.77;;
29954;SDS011;68448;51.188;6.868;2023-05-07T07:18:53;3.10;;;2.70;;
29954;SDS011;68448;51.188;6.868;2023-05-07T07:21:20;2.70;;;2.30;;
29954;SDS011;68448;51.188;6.868;2023-05-07T07:23:47;3.30;;;2.80;;
29954;SDS011;68448;51.188;6.868;2023-05-07T07:26:15;4.20;;;3.40;;
29954;SDS011;68448;51.188;6.868;2023-05-07T07:28:43;2.90;;;2.60;;
29954;SDS011;68448;51.188;6.868;2023-05-07T07:31:12;5.50;;;2.90;;
29954;SDS011;68448;51.188;6.868;2023-05-07T07:33:40;3.43;;;2.47;;
29954;SDS011;68448;51.188;6.868;2023-05-07T07:36:09;4.57;;;2.53;;
29954;SDS011;68448;51.188;6.868;2023-05-07T07:38:37;2.80;;;2.60;;
29954;SDS011;68448;51.188;6.868;2023-05-07T07:41:04;3.40;;;2.27;;
29954;SDS011;68448;51.188;6.868;2023-05-07T07:43:31;2.40;;;2.20;;
29954;SDS011;68448;51.188;6.868;2023-05-07T07:45:58;4.17;;;2.50;;
29954;SDS011;68448;51.188;6.868;2023-05-07T07:48:26;2.63;;;2.43;;
29954;SDS011;68448;51.188;6.868;2023-05-07T07:50:54;2.50;;;2.07;;
29954;SDS011;68448;51.188;6.868;2023-05-07T07:53:23;7.03;;;2.73;;
29954;SDS011;68448;51.188;6.868;2023-05-07T07:55:50;7.00;;;2.27;;
29954;SDS011;68448;51.188;6.868;2023-05-07T07:58:20;2.00;;;1.90;;
29954;SDS011;68448;51.188;6.868;2023-05-07T08:00:48;4.37;;;2.67;;
29954;SDS011;68448;51.188;6.868;2023-05-07T08:03:15;3.93;;;2.00;;
29954;SDS011;68448;51.188;6.868;2023-05-07T08:05:46;2.97;;;2.37;;
29954;SDS011;68448;51.188;6.868;2023-05-07T08:08:13;2.27;;;2.07;;
29954;SDS011;68448;51.188;6.868;2023-05-07T08:10:43;2.60;;;2.30;;
29954;SDS011;68448;51.188;6.868;2023-05-07T08:13:18;5.83;;;2.37;;
29954;SDS011;68448;51.188;6.868;2023-05-07T08:15:45;2.87;;;2.30;;
29954;SDS011;68448;51.188;6.868;2023-05-07T08:18:13;2.60;;;2.40;;
29954;SDS011;68448;51.188;6.868;2023-05-07T08:20:42;2.63;;;2.30;;
29954;SDS011;68448;51.188;6.868;2023-05-07T08:23:14;4.30;;;2.40;;
29954;SDS011;68448;51.188;6.868;2023-05-07T08:25:43;4.53;;;2.30;;
29954;SDS011;68448;51.188;6.868;2023-05-07T08:28:11;4.90;;;2.17;;
29954;SDS011;68448;51.188;6.868;2023-05-07T08:30:39;3.90;;;2.63;;
29954;SDS011;68448;51.188;6.868;2023-05-07T08:33:06;4.47;;;2.50;;
29954;SDS011;68448;51.188;6.868;2023-05-07T08:35:35;4.40;;;2.10;;
29954;SDS011;68448;51.188;6.868;2023-05-07T08:38:04;3.73;;;2.50;;
29954;SDS011;68448;51.188;6.868;2023-05-07T08:40:33;2.10;;;2.00;;
29954;SDS011;68448;51.188;6.868;2023-05-07T08:43:03;2.47;;;2.27;;
29954;SDS011;68448;51.188;6.868;2023-05-07T08:45:34;2.73;;;2.30;;
29954;SDS011;68448;51.188;6.868;2023-05-07T08:48:02;2.40;;;2.20;;
29954;SDS011;68448;51.188;6.868;2023-05-07T08:50:35;3.13;;;2.17;;
29954;SDS011;68448;51.188;6.868;2023-05-07T08:53:03;3.47;;;2.50;;
29954;SDS011;68448;51.188;6.868;2023-05-07T08:55:30;2.77;;;1.90;;
29954;SDS011;68448;51.188;6.868;2023-05-07T08:57:58;3.80;;;2.53;;
29954;SDS011;68448;51.188;6.868;2023-05-07T09:00:26;3.73;;;2.67;;
29954;SDS011;68448;51.188;6.868;2023-05-07T09:02:55;2.03;;;1.93;;
29954;SDS011;68448;51.188;6.868;2023-05-07T09:05:23;3.10;;;2.27;;
29954;SDS011;68448;51.188;6.868;2023-05-07T09:07:50;2.53;;;2.13;;
29954;SDS011;68448;51.188;6.868;2023-05-07T09:10:20;3.23;;;2.10;;
29954;SDS011;68448;51.188;6.868;2023-05-07T09:12:48;2.73;;;2.23;;
29954;SDS011;68448;51.188;6.868;2023-05-07T09:15:16;2.10;;;1.83;;
29954;SDS011;68448;51.188;6.868;2023-05-07T09:17:45;2.63;;;2.10;;
29954;SDS011;68448;51.188;6.868;2023-05-07T09:20:12;2.30;;;2.10;;
29954;SDS011;68448;51.188;6.868;2023-05-07T09:22:39;4.00;;;2.90;;
29954;SDS011;68448;51.188;6.868;2023-05-07T09:25:10;3.00;;;2.20;;
29954;SDS011;68448;51.188;6.868;2023-05-07T09:27:38;2.40;;;2.20;;
29954;SDS011;68448;51.188;6.868;2023-05-07T09:30:06;2.87;;;2.43;;
29954;SDS011;68448;51.188;6.868;2023-05-07T09:32:35;2.53;;;1.90;;
29954;SDS011;68448;51.188;6.868;2023-05-07T09:35:04;3.17;;;2.50;;
29954;SDS011;68448;51.188;6.868;2023-05-07T09:37:31;4.70;;;2.80;;
29954;SDS011;68448;51.188;6.868;2023-05-07T09:39:59;2.63;;;2.43;;
29954;SDS011;68448;51.188;6.868;2023-05-07T09:42:28;3.63;;;2.40;;
29954;SDS011;68448;51.188;6.868;2023-05-07T09:44:59;2.20;;;2.00;;
29954;SDS011;68448;51.188;6.868;2023-05-07T09:47:32;2.90;;;1.90;;
29954;SDS011;68448;51.188;6.868;2023-05-07T09:50:01;3.77;;;2.47;;
29954;SDS011;68448;51.188;6.868;2023-05-07T09:52:31;2.73;;;2.47;;
29954;SDS011;68448;51.188;6.868;2023-05-07T09:55:02;3.03;;;2.10;;
29954;SDS011;68448;51.188;6.868;2023-05-07T09:57:31;3.27;;;1.80;;
29954;SDS011;68448;51.188;6.868;2023-05-07T10:00:03;3.03;;;2.27;;
29954;SDS011;68448;51.188;6.868;2023-05-07T10:02:34;1.80;;;1.70;;
29954;SDS011;68448;51.188;6.868;2023-05-07T10:05:03;2.30;;;1.70;;
29954;SDS011;68448;51.188;6.868;2023-05-07T10:07:33;4.17;;;1.80;;
29954;SDS011;68448;51.188;6.868;2023-05-07T10:10:06;5.50;;;1.83;;
29954;SDS011;68448;51.188;6.868;2023-05-07T10:12:37;4.37;;;2.10;;
29954;SDS011;68448;51.188;6.868;2023-05-07T10:15:10;1.77;;;1.53;;
29954;SDS011;68448;51.188;6.868;2023-05-07T10:17:40;3.60;;;2.00;;
29954;SDS011;68448;51.188;6.868;2023-05-07T10:20:09;2.65;;;1.70;;
29954;SDS011;68448;51.188;6.868;2023-05-07T10:22:41;2.05;;;1.85;;
29954;SDS011;68448;51.188;6.868;2023-05-07T10:25:09;1.67;;;1.40;;
29954;SDS011;68448;51.188;6.868;2023-05-07T10:27:41;1.95;;;1.75;;
29954;SDS011;68448;51.188;6.868;2023-05-07T10:30:12;1.95;;;1.27;;
29954;SDS011;68448;51.188;6.868;2023-05-07T10:32:42;1.25;;;1.15;;
29954;SDS011;68448;51.188;6.868;2023-05-07T10:35:17;2.08;;;1.30;;
29954;SDS011;68448;51.188;6.868;2023-05-07T10:37:46;1.70;;;1.08;;
29954;SDS011;68448;51.188;6.868;2023-05-07T10:40:14;2.45;;;1.30;;
29954;SDS011;68448;51.188;6.868;2023-05-07T10:42:52;2.03;;;1.20;;
29954;SDS011;68448;51.188;6.868;2023-05-07T10:45:20;1.65;;;1.35;;
29954;SDS011;68448;51.188;6.868;2023-05-07T10:48:06;1.38;;;1.27;;
29954;SDS011;68448;51.188;6.868;2023-05-07T10:53:40;1.80;;;1.50;;
29954;SDS011;68448;51.188;6.868;2023-05-07T11:01:56;1.80;;;1.70;;
29954;SDS011;68448;51.188;6.868;2023-05-07T11:04:34;1.50;;;1.40;;
29954;SDS011;68448;51.188;6.868;2023-05-07T11:07:21;1.55;;;1.40;;
29954;SDS011;68448;51.188;6.868;2023-05-07T11:10:00;1.45;;;1.35;;
29954;SDS011;68448;51.188;6.868;2023-05-07T11:12:53;1.98;;;1.67;;
29954;SDS011;68448;51.188;6.868;2023-05-07T11:15:36;4.68;;;1.77;;
29954;SDS011;68448;51.188;6.868;2023-05-07T11:18:10;1.80;;;1.63;;
29954;SDS011;68448;51.188;6.868;2023-05-07T11:23:54;1.50;;;1.40;;
29954;SDS011;68448;51.188;6.868;2023-05-07T11:26:32;2.95;;;1.63;;
29954;SDS011;68448;51.188;6.868;2023-05-07T11:29:10;2.00;;;1.83;;
29954;SDS011;68448;51.188;6.868;2023-05-07T11:31:37;3.20;;;1.67;;
29954;SDS011;68448;51.188;6.868;2023-05-07T11:34:05;3.00;;;1.60;;
29954;SDS011;68448;51.188;6.868;2023-05-07T11:36:32;2.35;;;1.60;;
29954;SDS011;68448;51.188;6.868;2023-05-07T11:39:02;4.28;;;1.55;;
29954;SDS011;68448;51.188;6.868;2023-05-07T11:41:36;2.15;;;1.63;;
29954;SDS011;68448;51.188;6.868;2023-05-07T11:44:04;1.52;;;1.40;;
29954;SDS011;68448;51.188;6.868;2023-05-07T11:46:31;5.15;;;1.70;;
29954;SDS011;68448;51.188;6.868;2023-05-07T11:48:59;3.80;;;1.90;;
29954;SDS011;68448;51.188;6.868;2023-05-07T11:51:27;1.70;;;1.48;;
29954;SDS011;68448;51.188;6.868;2023-05-07T11:53:54;1.90;;;1.50;;
29954;SDS011;68448;51.188;6.868;2023-05-07T11:56:21;2.92;;;1.77;;
29954;SDS011;68448;51.188;6.868;2023-05-07T11:58:49;2.08;;;1.40;;
29954;SDS011;68448;51.188;6.868;2023-05-07T12:01:17;2.10;;;1.90;;
29954;SDS011;68448;51.188;6.868;2023-05-07T12:03:44;2.25;;;1.60;;
29954;SDS011;68448;51.188;6.868;2023-05-07T12:06:11;3.08;;;1.60;;
29954;SDS011;68448;51.188;6.868;2023-05-07T12:08:39;2.75;;;1.60;;
29954;SDS011;68448;51.188;6.868;2023-05-07T12:11:07;1.83;;;1.65;;
29954;SDS011;68448;51.188;6.868;2023-05-07T12:13:34;3.33;;;1.42;;
29954;SDS011;68448;51.188;6.868;2023-05-07T12:16:03;1.70;;;1.60;;
29954;SDS011;68448;51.188;6.868;2023-05-07T12:18:30;3.60;;;1.45;;
29954;SDS011;68448;51.188;6.868;2023-05-07T12:20:58;2.45;;;1.50;;
29954;SDS011;68448;51.188;6.868;2023-05-07T12:23:25;1.48;;;1.38;;
29954;SDS011;68448;51.188;6.868;2023-05-07T12:25:53;3.37;;;1.67;;
29954;SDS011;68448;51.188;6.868;2023-05-07T12:28:20;2.40;;;1.53;;
29954;SDS011;68448;51.188;6.868;2023-05-07T12:30:48;2.60;;;1.50;;
29954;SDS011;68448;51.188;6.868;2023-05-07T12:33:17;1.83;;;1.73;;
29954;SDS011;68448;51.188;6.868;2023-05-07T12:35:45;4.43;;;1.70;;
29954;SDS011;68448;51.188;6.868;2023-05-07T12:38:13;3.27;;;1.60;;
29954;SDS011;68448;51.188;6.868;2023-05-07T12:40:40;2.43;;;1.70;;
29954;SDS011;68448;51.188;6.868;2023-05-07T12:43:08;5.43;;;1.83;;
29954;SDS011;68448;51.188;6.868;2023-05-07T12:45:41;2.20;;;1.60;;
29954;SDS011;68448;51.188;6.868;2023-05-07T12:48:09;4.20;;;1.40;;
29954;SDS011;68448;51.188;6.868;2023-05-07T12:50:38;1.60;;;1.50;;
29954;SDS011;68448;51.188;6.868;2023-05-07T12:53:05;1.87;;;1.60;;
29954;SDS011;68448;51.188;6.868;2023-05-07T12:55:39;2.20;;;1.80;;
29954;SDS011;68448;51.188;6.868;2023-05-07T12:58:07;5.80;;;2.00;;
29954;SDS011;68448;51.188;6.868;2023-05-07T13:00:35;1.70;;;1.53;;
29954;SDS011;68448;51.188;6.868;2023-05-07T13:03:02;2.17;;;1.83;;
29954;SDS011;68448;51.188;6.868;2023-05-07T13:05:29;4.57;;;1.67;;
29954;SDS011;68448;51.188;6.868;2023-05-07T13:07:58;5.00;;;2.20;;
29954;SDS011;68448;51.188;6.868;2023-05-07T13:10:25;3.30;;;1.90;;
29954;SDS011;68448;51.188;6.868;2023-05-07T13:12:52;3.20;;;1.70;;
29954;SDS011;68448;51.188;6.868;2023-05-07T13:15:19;2.97;;;2.07;;
29954;SDS011;68448;51.188;6.868;2023-05-07T13:17:46;4.40;;;1.90;;
29954;SDS011;68448;51.188;6.868;2023-05-07T13:20:13;2.10;;;1.90;;
29954;SDS011;68448;51.188;6.868;2023-05-07T13:22:40;2.53;;;1.70;;
29954;SDS011;68448;51.188;6.868;2023-05-07T13:25:09;12.63;;;3.43;;
29954;SDS011;68448;51.188;6.868;2023-05-07T13:27:37;12.40;;;4.53;;
29954;SDS011;68448;51.188;6.868;2023-05-07T13:30:04;15.10;;;5.33;;
29954;SDS011;68448;51.188;6.868;2023-05-07T13:32:32;12.40;;;5.00;;
29954;SDS011;68448;51.188;6.868;2023-05-07T13:34:59;18.10;;;4.93;;
29954;SDS011;68448;51.188;6.868;2023-05-07T13:37:26;8.70;;;3.97;;
29954;SDS011;68448;51.188;6.868;2023-05-07T13:39:53;7.83;;;4.40;;
29954;SDS011;68448;51.188;6.868;2023-05-07T13:42:22;7.33;;;4.30;;
29954;SDS011;68448;51.188;6.868;2023-05-07T13:44:49;13.47;;;5.50;;
29954;SDS011;68448;51.188;6.868;2023-05-07T13:47:16;9.80;;;4.53;;
29954;SDS011;68448;51.188;6.868;2023-05-07T13:49:43;11.40;;;4.77;;
29954;SDS011;68448;51.188;6.868;2023-05-07T13:52:10;7.10;;;3.90;;
29954;SDS011;68448;51.188;6.868;2023-05-07T13:54:37;11.50;;;4.50;;
29954;SDS011;68448;51.188;6.868;2023-05-07T13:57:04;7.63;;;3.50;;
29954;SDS011;68448;51.188;6.868;2023-05-07T13:59:33;8.63;;;3.80;;
29954;SDS011;68448;51.188;6.868;2023-05-07T14:02:00;6.63;;;5.07;;
29954;SDS011;68448;51.188;6.868;2023-05-07T14:04:27;10.63;;;5.30;;
29954;SDS011;68448;51.188;6.868;2023-05-07T14:06:54;9.20;;;4.93;;
29954;SDS011;68448;51.188;6.868;2023-05-07T14:09:21;9.57;;;4.77;;
29954;SDS011;68448;51.188;6.868;2023-05-07T14:11:48;11.77;;;4.67;;
29954;SDS011;68448;51.188;6.868;2023-05-07T14:14:15;9.70;;;6.13;;
29954;SDS011;68448;51.188;6.868;2023-05-07T14:16:43;13.50;;;6.40;;
29954;SDS011;68448;51.188;6.868;2023-05-07T14:19:13;11.97;;;6.17;;
29954;SDS011;68448;51.188;6.868;2023-05-07T14:21:40;12.20;;;6.37;;
29954;SDS011;68448;51.188;6.868;2023-05-07T14:24:07;14.47;;;7.27;;
29954;SDS011;68448;51.188;6.868;2023-05-07T14:26:34;18.43;;;8.30;;
29954;SDS011;68448;51.188;6.868;2023-05-07T14:29:01;12.63;;;7.37;;
29954;SDS011;68448;51.188;6.868;2023-05-07T14:31:29;12.37;;;8.30;;
29954;SDS011;68448;51.188;6.868;2023-05-07T14:33:58;10.37;;;8.27;;
29954;SDS011;68448;51.188;6.868;2023-05-07T14:36:25;15.37;;;9.27;;
29954;SDS011;68448;51.188;6.868;2023-05-07T14:38:52;11.80;;;8.70;;
29954;SDS011;68448;51.188;6.868;2023-05-07T14:41:19;15.43;;;8.93;;
29954;SDS011;68448;51.188;6.868;2023-05-07T14:43:46;14.67;;;8.63;;
29954;SDS011;68448;51.188;6.868;2023-05-07T14:46:13;13.33;;;8.23;;
29954;SDS011;68448;51.188;6.868;2023-05-07T14:48:41;13.30;;;8.13;;
29954;SDS011;68448;51.188;6.868;2023-05-07T14:51:09;17.67;;;8.47;;
29954;SDS011;68448;51.188;6.868;2023-05-07T14:53:36;11.30;;;8.47;;
29954;SDS011;68448;51.188;6.868;2023-05-07T14:56:04;13.53;;;8.60;;
29954;SDS011;68448;51.188;6.868;2023-05-07T14:58:31;14.20;;;9.80;;
29954;SDS011;68448;51.188;6.868;2023-05-07T15:00:58;13.33;;;9.80;;
29954;SDS011;68448;51.188;6.868;2023-05-07T15:03:25;23.83;;;9.50;;
29954;SDS011;68448;51.188;6.868;2023-05-07T15:05:53;11.20;;;9.00;;